sensor_id;sensor_type;location;lat;lon;timestamp;temperature;humidity
41256;DHT22;26989;45.524;10.938;2023-10-31T00:01:53;15.20;99.90
41256;DHT22;26989;45.524;10.938;2023-10-31T00:04:21;15.20;99.90
41256;DHT22;26989;45.524;10.938;2023-10-31T00:06:47;15.20;99.90
41256;DHT22;26989;45.524;10.938;2023-10-31T00:09:14;15.10;99.90
41256;DHT22;26989;45.524;10.938;2023-10-31T00:11:41;15.30;99.90
41256;DHT22;26989;45.524;10.938;2023-10-31T00:14:09;15.30;99.90
41256;DHT22;26989;45.524;10.938;2023-10-31T00:16:56;15.20;99.90
41256;DHT22;26989;45.524;10.938;2023-10-31T00:19:23;15.10;99.90
41256;DHT22;26989;45.524;10.938;2023-10-31T00:21:50;15.10;99.90
41256;DHT22;26989;45.524;10.938;2023-10-31T00:24:17;15.10;99.90
41256;DHT22;26989;45.524;10.938;2023-10-31T00:26:44;15.00;99.90
41256;DHT22;26989;45.524;10.938;2023-10-31T00:29:11;14.90;99.90
41256;DHT22;26989;45.524;10.938;2023-10-31T00:31:37;14.90;99.90
41256;DHT22;26989;45.524;10.938;2023-10-31T00:34:08;14.80;99.90
41256;DHT22;26989;45.524;10.938;2023-10-31T00:36:35;14.90;99.90
41256;DHT22;26989;45.524;10.938;2023-10-31T00:39:02;14.80;99.90
41256;DHT22;26989;45.524;10.938;2023-10-31T00:41:29;14.70;99.90
41256;DHT22;26989;45.524;10.938;2023-10-31T00:43:56;14.80;99.90
41256;DHT22;26989;45.524;10.938;2023-10-31T00:46:23;14.70;99.90
41256;DHT22;26989;45.524;10.938;2023-10-31T00:48:50;14.60;99.90
41256;DHT22;26989;45.524;10.938;2023-10-31T00:51:17;14.60;99.90
41256;DHT22;26989;45.524;10.938;2023-10-31T00:53:43;14.60;99.90
41256;DHT22;26989;45.524;10.938;2023-10-31T00:56:10;14.70;99.90
41256;DHT22;26989;45.524;10.938;2023-10-31T00:58:37;14.70;99.90
41256;DHT22;26989;45.524;10.938;2023-10-31T01:01:05;14.70;99.90
41256;DHT22;26989;45.524;10.938;2023-10-31T01:03:31;14.80;99.90
41256;DHT22;26989;45.524;10.938;2023-10-31T01:05:59;14.90;99.90
41256;DHT22;26989;45.524;10.938;2023-10-31T01:08:26;14.80;99.90
41256;DHT22;26989;45.524;10.938;2023-10-31T01:10:53;14.80;99.90
41256;DHT22;26989;45.524;10.938;2023-10-31T01:13:20;14.70;99.90
41256;DHT22;26989;45.524;10.938;2023-10-31T01:15:47;14.80;99.90
41256;DHT22;26989;45.524;10.938;2023-10-31T01:18:14;14.80;99.90
41256;DHT22;26989;45.524;10.938;2023-10-31T01:20:41;14.70;99.90
41256;DHT22;26989;45.524;10.938;2023-10-31T01:23:08;14.70;99.90
41256;DHT22;26989;45.524;10.938;2023-10-31T01:25:35;14.70;99.90
41256;DHT22;26989;45.524;10.938;2023-10-31T01:28:02;14.70;99.90
41256;DHT22;26989;45.524;10.938;2023-10-31T01:30:29;14.80;99.90
41256;DHT22;26989;45.524;10.938;2023-10-31T01:32:55;14.80;99.90
41256;DHT22;26989;45.524;10.938;2023-10-31T01:35:22;14.80;99.90
41256;DHT22;26989;45.524;10.938;2023-10-31T01:37:49;14.90;99.90
41256;DHT22;26989;45.524;10.938;2023-10-31T01:40:16;14.90;99.90
41256;DHT22;26989;45.524;10.938;2023-10-31T01:42:43;14.80;99.90
41256;DHT22;26989;45.524;10.938;2023-10-31T01:45:11;14.90;99.90
41256;DHT22;26989;45.524;10.938;2023-10-31T01:47:38;14.80;99.90
41256;DHT22;26989;45.524;10.938;2023-10-31T01:50:06;14.70;99.90
41256;DHT22;26989;45.524;10.938;2023-10-31T01:52:34;14.70;99.90
41256;DHT22;26989;45.524;10.938;2023-10-31T01:55:02;14.80;99.90
41256;DHT22;26989;45.524;10.938;2023-10-31T01:57:31;14.80;99.90
41256;DHT22;26989;45.524;10.938;2023-10-31T01:59:58;14.80;99.90
41256;DHT22;26989;45.524;10.938;2023-10-31T02:02:27;14.80;99.90
41256;DHT22;26989;45.524;10.938;2023-10-31T02:04:55;14.70;99.90
41256;DHT22;26989;45.524;10.938;2023-10-31T02:07:22;14.60;99.90
41256;DHT22;26989;45.524;10.938;2023-10-31T02:09:49;14.60;99.90
41256;DHT22;26989;45.524;10.938;2023-10-31T02:12:31;14.60;99.90
41256;DHT22;26989;45.524;10.938;2023-10-31T02:14:59;14.50;99.90
41256;DHT22;26989;45.524;10.938;2023-10-31T02:17:26;14.60;99.90
41256;DHT22;26989;45.524;10.938;2023-10-31T02:19:53;14.70;99.90
41256;DHT22;26989;45.524;10.938;2023-10-31T02:22:21;14.70;99.90
41256;DHT22;26989;45.524;10.938;2023-10-31T02:24:48;14.70;99.90
41256;DHT22;26989;45.524;10.938;2023-10-31T02:27:16;14.60;99.90
41256;DHT22;26989;45.524;10.938;2023-10-31T02:29:42;14.60;99.90
41256;DHT22;26989;45.524;10.938;2023-10-31T02:32:09;14.60;99.90
41256;DHT22;26989;45.524;10.938;2023-10-31T02:34:36;14.60;99.90
41256;DHT22;26989;45.524;10.938;2023-10-31T02:37:03;14.60;99.90
41256;DHT22;26989;45.524;10.938;2023-10-31T02:39:32;14.60;99.90
41256;DHT22;26989;45.524;10.938;2023-10-31T02:41:59;14.70;99.90
41256;DHT22;26989;45.524;10.938;2023-10-31T02:44:26;14.70;99.90
41256;DHT22;26989;45.524;10.938;2023-10-31T02:46:53;14.70;99.90
41256;DHT22;26989;45.524;10.938;2023-10-31T02:49:20;14.70;99.90
41256;DHT22;26989;45.524;10.938;2023-10-31T02:51:47;14.80;99.90
41256;DHT22;26989;45.524;10.938;2023-10-31T02:54:14;14.80;99.90
41256;DHT22;26989;45.524;10.938;2023-10-31T02:56:41;14.70;99.90
41256;DHT22;26989;45.524;10.938;2023-10-31T02:59:08;14.70;99.90
41256;DHT22;26989;45.524;10.938;2023-10-31T03:01:35;14.70;99.90
41256;DHT22;26989;45.524;10.938;2023-10-31T03:04:03;14.60;99.90
41256;DHT22;26989;45.524;10.938;2023-10-31T03:06:30;14.70;99.90
41256;DHT22;26989;45.524;10.938;2023-10-31T03:08:57;14.70;99.90
41256;DHT22;26989;45.524;10.938;2023-10-31T03:11:25;14.70;99.90
41256;DHT22;26989;45.524;10.938;2023-10-31T03:13:52;14.70;99.90
41256;DHT22;26989;45.524;10.938;2023-10-31T03:16:23;14.80;99.90
41256;DHT22;26989;45.524;10.938;2023-10-31T03:18:52;14.90;99.90
41256;DHT22;26989;45.524;10.938;2023-10-31T03:21:19;14.80;99.90
41256;DHT22;26989;45.524;10.938;2023-10-31T03:23:48;14.70;99.90
41256;DHT22;26989;45.524;10.938;2023-10-31T03:26:19;14.70;99.90
41256;DHT22;26989;45.524;10.938;2023-10-31T03:28:47;14.80;99.90
41256;DHT22;26989;45.524;10.938;2023-10-31T03:31:15;14.80;99.90
41256;DHT22;26989;45.524;10.938;2023-10-31T03:33:42;14.80;99.90
41256;DHT22;26989;45.524;10.938;2023-10-31T03:36:09;14.60;99.90
41256;DHT22;26989;45.524;10.938;2023-10-31T03:38:36;14.60;99.90
41256;DHT22;26989;45.524;10.938;2023-10-31T03:41:04;14.60;99.90
41256;DHT22;26989;45.524;10.938;2023-10-31T03:43:31;14.80;99.90
41256;DHT22;26989;45.524;10.938;2023-10-31T03:45:58;14.80;99.90
41256;DHT22;26989;45.524;10.938;2023-10-31T03:48:25;14.80;99.90
41256;DHT22;26989;45.524;10.938;2023-10-31T03:50:52;14.80;99.90
41256;DHT22;26989;45.524;10.938;2023-10-31T03:53:19;14.90;99.90
41256;DHT22;26989;45.524;10.938;2023-10-31T03:55:46;14.80;99.90
41256;DHT22;26989;45.524;10.938;2023-10-31T03:58:13;14.80;99.90
41256;DHT22;26989;45.524;10.938;2023-10-31T04:00:40;14.90;99.90
41256;DHT22;26989;45.524;10.938;2023-10-31T04:03:08;14.90;99.90
41256;DHT22;26989;45.524;10.938;2023-10-31T04:05:35;14.90;99.90
41256;DHT22;26989;45.524;10.938;2023-10-31T04:08:02;14.90;99.90
41256;DHT22;26989;45.524;10.938;2023-10-31T04:10:29;14.90;99.90
41256;DHT22;26989;45.524;10.938;2023-10-31T04:12:56;14.80;99.90
41256;DHT22;26989;45.524;10.938;2023-10-31T04:15:23;14.80;99.90
41256;DHT22;26989;45.524;10.938;2023-10-31T04:17:49;14.70;99.90
41256;DHT22;26989;45.524;10.938;2023-10-31T04:20:17;14.70;99.90
41256;DHT22;26989;45.524;10.938;2023-10-31T04:22:44;14.90;99.90
41256;DHT22;26989;45.524;10.938;2023-10-31T04:25:11;14.90;99.90
41256;DHT22;26989;45.524;10.938;2023-10-31T04:27:38;15.10;99.90
41256;DHT22;26989;45.524;10.938;2023-10-31T04:30:05;15.10;99.90
41256;DHT22;26989;45.524;10.938;2023-10-31T04:32:32;15.10;99.90
41256;DHT22;26989;45.524;10.938;2023-10-31T04:34:59;15.10;99.90
41256;DHT22;26989;45.524;10.938;2023-10-31T04:37:26;15.00;99.90
41256;DHT22;26989;45.524;10.938;2023-10-31T04:39:53;15.10;99.90
41256;DHT22;26989;45.524;10.938;2023-10-31T04:42:20;15.20;99.90
41256;DHT22;26989;45.524;10.938;2023-10-31T04:44:47;15.40;99.90
41256;DHT22;26989;45.524;10.938;2023-10-31T04:47:14;15.20;99.90
41256;DHT22;26989;45.524;10.938;2023-10-31T04:49:41;15.00;99.90
41256;DHT22;26989;45.524;10.938;2023-10-31T04:52:08;14.90;99.90
41256;DHT22;26989;45.524;10.938;2023-10-31T04:54:35;14.70;99.90
41256;DHT22;26989;45.524;10.938;2023-10-31T04:57:02;14.90;99.90
41256;DHT22;26989;45.524;10.938;2023-10-31T04:59:30;15.00;99.90
41256;DHT22;26989;45.524;10.938;2023-10-31T05:01:58;15.30;99.90
41256;DHT22;26989;45.524;10.938;2023-10-31T05:04:25;15.20;99.90
41256;DHT22;26989;45.524;10.938;2023-10-31T05:06:53;15.10;99.90
41256;DHT22;26989;45.524;10.938;2023-10-31T05:09:20;15.00;99.90
41256;DHT22;26989;45.524;10.938;2023-10-31T05:11:47;15.00;99.90
41256;DHT22;26989;45.524;10.938;2023-10-31T05:14:14;14.80;99.90
41256;DHT22;26989;45.524;10.938;2023-10-31T05:16:42;14.70;99.90
41256;DHT22;26989;45.524;10.938;2023-10-31T05:19:10;14.70;99.90
41256;DHT22;26989;45.524;10.938;2023-10-31T05:21:37;14.70;99.90
41256;DHT22;26989;45.524;10.938;2023-10-31T05:24:05;15.00;99.90
41256;DHT22;26989;45.524;10.938;2023-10-31T05:26:32;15.00;99.90
41256;DHT22;26989;45.524;10.938;2023-10-31T05:28:59;14.90;99.90
41256;DHT22;26989;45.524;10.938;2023-10-31T05:31:26;14.80;99.90
41256;DHT22;26989;45.524;10.938;2023-10-31T05:33:53;14.80;99.90
41256;DHT22;26989;45.524;10.938;2023-10-31T05:36:21;14.90;99.90
41256;DHT22;26989;45.524;10.938;2023-10-31T05:38:49;14.90;99.90
41256;DHT22;26989;45.524;10.938;2023-10-31T05:41:16;14.90;99.90
41256;DHT22;26989;45.524;10.938;2023-10-31T05:43:43;14.80;99.90
41256;DHT22;26989;45.524;10.938;2023-10-31T05:46:10;14.60;99.90
41256;DHT22;26989;45.524;10.938;2023-10-31T05:48:38;14.60;99.90
41256;DHT22;26989;45.524;10.938;2023-10-31T05:51:16;14.50;99.90
41256;DHT22;26989;45.524;10.938;2023-10-31T05:53:48;14.60;99.90
41256;DHT22;26989;45.524;10.938;2023-10-31T05:56:16;14.60;99.90
41256;DHT22;26989;45.524;10.938;2023-10-31T05:58:43;14.60;99.90
41256;DHT22;26989;45.524;10.938;2023-10-31T06:01:10;14.60;99.90
41256;DHT22;26989;45.524;10.938;2023-10-31T06:03:37;14.60;99.90
41256;DHT22;26989;45.524;10.938;2023-10-31T06:06:07;14.60;99.90
41256;DHT22;26989;45.524;10.938;2023-10-31T06:08:34;14.70;99.90
41256;DHT22;26989;45.524;10.938;2023-10-31T06:11:03;14.90;99.90
41256;DHT22;26989;45.524;10.938;2023-10-31T06:13:31;15.00;99.90
41256;DHT22;26989;45.524;10.938;2023-10-31T06:15:58;14.90;99.90
41256;DHT22;26989;45.524;10.938;2023-10-31T06:18:28;15.10;99.90
41256;DHT22;26989;45.524;10.938;2023-10-31T06:20:55;15.10;99.90
41256;DHT22;26989;45.524;10.938;2023-10-31T06:23:22;15.20;99.90
41256;DHT22;26989;45.524;10.938;2023-10-31T06:25:50;15.10;99.90
41256;DHT22;26989;45.524;10.938;2023-10-31T06:28:17;15.00;99.90
41256;DHT22;26989;45.524;10.938;2023-10-31T06:30:44;15.00;99.90
41256;DHT22;26989;45.524;10.938;2023-10-31T06:33:11;15.00;99.90
41256;DHT22;26989;45.524;10.938;2023-10-31T06:35:39;15.00;99.90
41256;DHT22;26989;45.524;10.938;2023-10-31T06:38:06;15.00;99.90
41256;DHT22;26989;45.524;10.938;2023-10-31T06:40:33;15.00;99.90
41256;DHT22;26989;45.524;10.938;2023-10-31T06:43:01;14.90;99.90
41256;DHT22;26989;45.524;10.938;2023-10-31T06:45:28;14.90;99.90
41256;DHT22;26989;45.524;10.938;2023-10-31T06:47:55;14.70;99.90
41256;DHT22;26989;45.524;10.938;2023-10-31T06:50:22;14.70;99.90
41256;DHT22;26989;45.524;10.938;2023-10-31T06:52:49;14.50;99.90
41256;DHT22;26989;45.524;10.938;2023-10-31T06:55:16;14.30;99.90
41256;DHT22;26989;45.524;10.938;2023-10-31T06:57:43;14.30;99.90
41256;DHT22;26989;45.524;10.938;2023-10-31T07:00:11;14.40;99.90
41256;DHT22;26989;45.524;10.938;2023-10-31T07:02:39;14.40;99.90
41256;DHT22;26989;45.524;10.938;2023-10-31T07:05:06;14.40;99.90
41256;DHT22;26989;45.524;10.938;2023-10-31T07:07:34;14.40;99.90
41256;DHT22;26989;45.524;10.938;2023-10-31T07:10:01;14.60;99.90
41256;DHT22;26989;45.524;10.938;2023-10-31T07:12:28;14.60;99.90
41256;DHT22;26989;45.524;10.938;2023-10-31T07:14:55;14.60;99.90
41256;DHT22;26989;45.524;10.938;2023-10-31T07:17:22;14.70;99.90
41256;DHT22;26989;45.524;10.938;2023-10-31T07:19:49;14.60;99.90
41256;DHT22;26989;45.524;10.938;2023-10-31T07:22:16;14.50;99.90
41256;DHT22;26989;45.524;10.938;2023-10-31T07:24:43;14.40;99.90
41256;DHT22;26989;45.524;10.938;2023-10-31T07:27:10;14.50;99.90
41256;DHT22;26989;45.524;10.938;2023-10-31T07:29:39;14.40;99.90
41256;DHT22;26989;45.524;10.938;2023-10-31T07:32:10;14.70;99.90
41256;DHT22;26989;45.524;10.938;2023-10-31T07:34:41;14.80;99.90
41256;DHT22;26989;45.524;10.938;2023-10-31T07:37:08;14.70;99.90
41256;DHT22;26989;45.524;10.938;2023-10-31T07:39:37;15.00;99.90
41256;DHT22;26989;45.524;10.938;2023-10-31T07:42:04;15.20;99.90
41256;DHT22;26989;45.524;10.938;2023-10-31T07:44:31;15.40;99.90
41256;DHT22;26989;45.524;10.938;2023-10-31T07:46:58;15.90;99.90
41256;DHT22;26989;45.524;10.938;2023-10-31T07:49:25;16.20;99.90
41256;DHT22;26989;45.524;10.938;2023-10-31T07:51:52;16.40;99.90
41256;DHT22;26989;45.524;10.938;2023-10-31T07:54:19;16.50;99.90
41256;DHT22;26989;45.524;10.938;2023-10-31T07:56:46;16.40;99.90
41256;DHT22;26989;45.524;10.938;2023-10-31T07:59:13;16.60;99.90
41256;DHT22;26989;45.524;10.938;2023-10-31T08:01:40;16.70;99.90
41256;DHT22;26989;45.524;10.938;2023-10-31T08:04:06;16.70;99.90
41256;DHT22;26989;45.524;10.938;2023-10-31T08:06:34;16.40;99.90
41256;DHT22;26989;45.524;10.938;2023-10-31T08:09:00;16.10;99.90
41256;DHT22;26989;45.524;10.938;2023-10-31T08:11:27;15.70;99.90
41256;DHT22;26989;45.524;10.938;2023-10-31T08:13:55;15.40;99.90
41256;DHT22;26989;45.524;10.938;2023-10-31T08:16:22;15.00;99.90
41256;DHT22;26989;45.524;10.938;2023-10-31T08:18:49;14.70;99.90
41256;DHT22;26989;45.524;10.938;2023-10-31T08:21:16;14.60;99.90
41256;DHT22;26989;45.524;10.938;2023-10-31T08:23:43;14.40;99.90
41256;DHT22;26989;45.524;10.938;2023-10-31T08:26:13;14.40;99.90
41256;DHT22;26989;45.524;10.938;2023-10-31T08:28:40;14.40;99.90
41256;DHT22;26989;45.524;10.938;2023-10-31T08:31:07;14.40;99.90
41256;DHT22;26989;45.524;10.938;2023-10-31T08:33:34;14.40;99.90
41256;DHT22;26989;45.524;10.938;2023-10-31T08:36:02;14.30;99.90
41256;DHT22;26989;45.524;10.938;2023-10-31T08:38:29;14.40;99.90
41256;DHT22;26989;45.524;10.938;2023-10-31T08:40:58;14.50;99.90
41256;DHT22;26989;45.524;10.938;2023-10-31T08:43:26;14.20;99.90
41256;DHT22;26989;45.524;10.938;2023-10-31T08:45:54;13.70;99.90
41256;DHT22;26989;45.524;10.938;2023-10-31T08:48:23;13.50;99.90
41256;DHT22;26989;45.524;10.938;2023-10-31T08:50:50;13.60;99.90
41256;DHT22;26989;45.524;10.938;2023-10-31T08:53:17;13.40;99.90
41256;DHT22;26989;45.524;10.938;2023-10-31T08:55:46;13.40;99.90
41256;DHT22;26989;45.524;10.938;2023-10-31T08:58:13;13.70;99.90
41256;DHT22;26989;45.524;10.938;2023-10-31T09:00:40;13.70;99.90
41256;DHT22;26989;45.524;10.938;2023-10-31T09:03:08;13.90;99.90
41256;DHT22;26989;45.524;10.938;2023-10-31T09:05:35;14.40;99.90
41256;DHT22;26989;45.524;10.938;2023-10-31T09:08:02;14.80;99.90
41256;DHT22;26989;45.524;10.938;2023-10-31T09:10:29;14.80;99.90
41256;DHT22;26989;45.524;10.938;2023-10-31T09:12:56;14.80;99.90
41256;DHT22;26989;45.524;10.938;2023-10-31T09:15:24;14.60;99.90
41256;DHT22;26989;45.524;10.938;2023-10-31T09:17:51;14.30;99.90
41256;DHT22;26989;45.524;10.938;2023-10-31T09:20:18;14.10;99.90
41256;DHT22;26989;45.524;10.938;2023-10-31T09:22:45;14.00;99.90
41256;DHT22;26989;45.524;10.938;2023-10-31T09:25:12;13.90;99.90
41256;DHT22;26989;45.524;10.938;2023-10-31T09:27:42;13.90;99.90
41256;DHT22;26989;45.524;10.938;2023-10-31T09:30:09;13.80;99.90
41256;DHT22;26989;45.524;10.938;2023-10-31T09:32:36;13.80;99.90
41256;DHT22;26989;45.524;10.938;2023-10-31T09:35:03;13.80;99.90
41256;DHT22;26989;45.524;10.938;2023-10-31T09:37:31;13.80;99.90
41256;DHT22;26989;45.524;10.938;2023-10-31T09:39:58;13.80;99.90
41256;DHT22;26989;45.524;10.938;2023-10-31T09:42:25;13.80;99.90
41256;DHT22;26989;45.524;10.938;2023-10-31T09:44:52;13.80;99.90
41256;DHT22;26989;45.524;10.938;2023-10-31T09:47:20;14.00;99.90
41256;DHT22;26989;45.524;10.938;2023-10-31T09:49:47;14.20;99.90
41256;DHT22;26989;45.524;10.938;2023-10-31T09:52:14;14.60;99.90
41256;DHT22;26989;45.524;10.938;2023-10-31T09:54:41;14.70;99.90
41256;DHT22;26989;45.524;10.938;2023-10-31T09:57:14;14.80;99.90
41256;DHT22;26989;45.524;10.938;2023-10-31T09:59:41;14.70;99.90
41256;DHT22;26989;45.524;10.938;2023-10-31T10:02:08;14.70;99.90
41256;DHT22;26989;45.524;10.938;2023-10-31T10:04:37;14.80;99.90
41256;DHT22;26989;45.524;10.938;2023-10-31T10:07:05;14.70;99.90
41256;DHT22;26989;45.524;10.938;2023-10-31T10:09:32;14.80;99.90
41256;DHT22;26989;45.524;10.938;2023-10-31T10:12:00;14.70;99.90
41256;DHT22;26989;45.524;10.938;2023-10-31T10:14:27;14.60;99.90
41256;DHT22;26989;45.524;10.938;2023-10-31T10:16:55;14.50;99.90
41256;DHT22;26989;45.524;10.938;2023-10-31T10:19:22;14.30;99.90
41256;DHT22;26989;45.524;10.938;2023-10-31T10:21:53;14.10;99.90
41256;DHT22;26989;45.524;10.938;2023-10-31T10:24:21;13.90;99.90
41256;DHT22;26989;45.524;10.938;2023-10-31T10:26:49;13.80;99.90
41256;DHT22;26989;45.524;10.938;2023-10-31T10:29:16;13.80;99.90
41256;DHT22;26989;45.524;10.938;2023-10-31T10:31:43;14.10;99.90
41256;DHT22;26989;45.524;10.938;2023-10-31T10:34:15;14.30;99.90
41256;DHT22;26989;45.524;10.938;2023-10-31T10:36:48;14.40;99.90
41256;DHT22;26989;45.524;10.938;2023-10-31T10:39:21;14.70;99.90
41256;DHT22;26989;45.524;10.938;2023-10-31T10:41:53;14.70;99.90
41256;DHT22;26989;45.524;10.938;2023-10-31T10:44:35;14.60;99.90
41256;DHT22;26989;45.524;10.938;2023-10-31T10:47:04;14.30;99.90
41256;DHT22;26989;45.524;10.938;2023-10-31T10:49:34;14.00;99.90
41256;DHT22;26989;45.524;10.938;2023-10-31T10:57:33;13.20;99.90
41256;DHT22;26989;45.524;10.938;2023-10-31T11:00:05;13.00;99.90
41256;DHT22;26989;45.524;10.938;2023-10-31T11:02:43;12.80;99.90
41256;DHT22;26989;45.524;10.938;2023-10-31T11:05:10;12.60;99.90
41256;DHT22;26989;45.524;10.938;2023-10-31T11:07:39;12.40;99.90
41256;DHT22;26989;45.524;10.938;2023-10-31T11:10:08;12.40;99.90
41256;DHT22;26989;45.524;10.938;2023-10-31T11:12:36;12.10;99.90
41256;DHT22;26989;45.524;10.938;2023-10-31T11:15:05;12.10;99.90
41256;DHT22;26989;45.524;10.938;2023-10-31T11:17:39;12.10;99.90
41256;DHT22;26989;45.524;10.938;2023-10-31T11:20:18;12.10;99.90
41256;DHT22;26989;45.524;10.938;2023-10-31T11:22:54;12.10;99.90
41256;DHT22;26989;45.524;10.938;2023-10-31T11:25:33;12.00;99.90
41256;DHT22;26989;45.524;10.938;2023-10-31T11:28:17;12.10;99.90
41256;DHT22;26989;45.524;10.938;2023-10-31T11:30:48;12.00;99.90
41256;DHT22;26989;45.524;10.938;2023-10-31T11:33:18;12.00;99.90
41256;DHT22;26989;45.524;10.938;2023-10-31T11:35:50;12.00;99.90
41256;DHT22;26989;45.524;10.938;2023-10-31T11:38:32;12.10;99.90
41256;DHT22;26989;45.524;10.938;2023-10-31T11:41:02;12.10;99.90
41256;DHT22;26989;45.524;10.938;2023-10-31T11:46:23;12.20;99.90
41256;DHT22;26989;45.524;10.938;2023-10-31T11:48:54;12.30;99.90
41256;DHT22;26989;45.524;10.938;2023-10-31T11:51:24;12.40;99.90
41256;DHT22;26989;45.524;10.938;2023-10-31T11:53:51;12.50;99.90
41256;DHT22;26989;45.524;10.938;2023-10-31T11:56:20;12.50;99.90
41256;DHT22;26989;45.524;10.938;2023-10-31T11:59:03;12.50;99.90
41256;DHT22;26989;45.524;10.938;2023-10-31T12:01:30;12.90;99.90
41256;DHT22;26989;45.524;10.938;2023-10-31T12:03:58;13.30;99.90
41256;DHT22;26989;45.524;10.938;2023-10-31T12:06:26;13.10;99.90
41256;DHT22;26989;45.524;10.938;2023-10-31T12:08:53;13.40;99.90
41256;DHT22;26989;45.524;10.938;2023-10-31T12:11:23;13.00;99.90
41256;DHT22;26989;45.524;10.938;2023-10-31T12:13:59;13.10;99.90
41256;DHT22;26989;45.524;10.938;2023-10-31T12:16:29;13.10;99.90
41256;DHT22;26989;45.524;10.938;2023-10-31T12:19:05;13.50;99.90
41256;DHT22;26989;45.524;10.938;2023-10-31T12:21:45;13.90;99.90
41256;DHT22;26989;45.524;10.938;2023-10-31T12:24:18;14.20;99.90
41256;DHT22;26989;45.524;10.938;2023-10-31T12:26:46;14.50;99.90
41256;DHT22;26989;45.524;10.938;2023-10-31T12:29:14;14.70;99.90
41256;DHT22;26989;45.524;10.938;2023-10-31T12:31:47;15.00;99.90
41256;DHT22;26989;45.524;10.938;2023-10-31T12:34:16;15.20;99.90
41256;DHT22;26989;45.524;10.938;2023-10-31T12:36:46;15.30;99.90
41256;DHT22;26989;45.524;10.938;2023-10-31T12:39:13;15.30;99.90
41256;DHT22;26989;45.524;10.938;2023-10-31T12:41:41;15.20;99.90
41256;DHT22;26989;45.524;10.938;2023-10-31T12:44:08;14.90;99.90
41256;DHT22;26989;45.524;10.938;2023-10-31T12:46:40;14.60;99.90
41256;DHT22;26989;45.524;10.938;2023-10-31T12:49:12;14.90;99.90
41256;DHT22;26989;45.524;10.938;2023-10-31T12:51:59;15.40;99.90
41256;DHT22;26989;45.524;10.938;2023-10-31T12:54:35;15.50;99.90
41256;DHT22;26989;45.524;10.938;2023-10-31T12:57:09;15.50;99.90
41256;DHT22;26989;45.524;10.938;2023-10-31T12:59:38;15.60;99.90
41256;DHT22;26989;45.524;10.938;2023-10-31T13:02:06;15.50;99.90
41256;DHT22;26989;45.524;10.938;2023-10-31T13:04:34;15.60;99.90
41256;DHT22;26989;45.524;10.938;2023-10-31T13:07:06;15.80;99.90
41256;DHT22;26989;45.524;10.938;2023-10-31T13:09:38;15.80;99.90
41256;DHT22;26989;45.524;10.938;2023-10-31T13:12:08;15.80;99.90
41256;DHT22;26989;45.524;10.938;2023-10-31T13:14:36;15.80;99.90
41256;DHT22;26989;45.524;10.938;2023-10-31T13:17:04;16.10;99.90
41256;DHT22;26989;45.524;10.938;2023-10-31T13:19:31;16.10;99.90
41256;DHT22;26989;45.524;10.938;2023-10-31T13:21:58;16.40;99.90
41256;DHT22;26989;45.524;10.938;2023-10-31T13:24:25;16.60;99.90
41256;DHT22;26989;45.524;10.938;2023-10-31T13:26:53;16.70;99.90
41256;DHT22;26989;45.524;10.938;2023-10-31T13:29:20;16.80;99.90
41256;DHT22;26989;45.524;10.938;2023-10-31T13:31:48;16.90;99.90
41256;DHT22;26989;45.524;10.938;2023-10-31T13:34:19;16.90;99.90
41256;DHT22;26989;45.524;10.938;2023-10-31T13:36:46;16.80;99.90
41256;DHT22;26989;45.524;10.938;2023-10-31T13:39:15;16.70;99.90
41256;DHT22;26989;45.524;10.938;2023-10-31T13:41:42;16.60;99.90
41256;DHT22;26989;45.524;10.938;2023-10-31T13:44:09;16.50;99.90
41256;DHT22;26989;45.524;10.938;2023-10-31T13:46:36;16.40;99.90
41256;DHT22;26989;45.524;10.938;2023-10-31T13:49:03;16.20;99.90
41256;DHT22;26989;45.524;10.938;2023-10-31T13:51:30;16.10;99.90
41256;DHT22;26989;45.524;10.938;2023-10-31T13:53:58;16.10;99.90
41256;DHT22;26989;45.524;10.938;2023-10-31T13:56:25;16.10;99.90
41256;DHT22;26989;45.524;10.938;2023-10-31T13:58:52;16.10;99.90
41256;DHT22;26989;45.524;10.938;2023-10-31T14:01:19;16.00;99.90
41256;DHT22;26989;45.524;10.938;2023-10-31T14:03:51;16.00;99.90
41256;DHT22;26989;45.524;10.938;2023-10-31T14:06:19;15.90;99.90
41256;DHT22;26989;45.524;10.938;2023-10-31T14:08:46;15.90;99.90
41256;DHT22;26989;45.524;10.938;2023-10-31T14:11:13;15.70;99.90
41256;DHT22;26989;45.524;10.938;2023-10-31T14:13:40;15.60;99.90
41256;DHT22;26989;45.524;10.938;2023-10-31T14:16:10;15.60;99.90
41256;DHT22;26989;45.524;10.938;2023-10-31T14:18:39;15.80;99.90
41256;DHT22;26989;45.524;10.938;2023-10-31T14:21:07;15.80;99.90
41256;DHT22;26989;45.524;10.938;2023-10-31T14:23:35;15.90;99.90
41256;DHT22;26989;45.524;10.938;2023-10-31T14:26:02;15.90;99.90
41256;DHT22;26989;45.524;10.938;2023-10-31T14:28:29;15.80;99.90
41256;DHT22;26989;45.524;10.938;2023-10-31T14:30:56;15.80;99.90
41256;DHT22;26989;45.524;10.938;2023-10-31T14:33:23;15.90;99.90
41256;DHT22;26989;45.524;10.938;2023-10-31T14:35:50;15.80;99.90
41256;DHT22;26989;45.524;10.938;2023-10-31T14:38:17;15.80;99.90
41256;DHT22;26989;45.524;10.938;2023-10-31T14:40:44;15.70;99.90
41256;DHT22;26989;45.524;10.938;2023-10-31T14:43:11;15.70;99.90
41256;DHT22;26989;45.524;10.938;2023-10-31T14:45:45;15.70;99.90
41256;DHT22;26989;45.524;10.938;2023-10-31T14:48:12;15.70;99.90
41256;DHT22;26989;45.524;10.938;2023-10-31T14:50:39;15.70;99.90
41256;DHT22;26989;45.524;10.938;2023-10-31T14:53:06;15.70;99.90
41256;DHT22;26989;45.524;10.938;2023-10-31T14:55:33;15.70;99.90
41256;DHT22;26989;45.524;10.938;2023-10-31T14:58:01;16.00;99.90
41256;DHT22;26989;45.524;10.938;2023-10-31T15:00:27;16.00;99.90
41256;DHT22;26989;45.524;10.938;2023-10-31T15:02:56;16.10;99.90
41256;DHT22;26989;45.524;10.938;2023-10-31T15:05:26;16.30;99.90
41256;DHT22;26989;45.524;10.938;2023-10-31T15:07:53;16.30;99.90
41256;DHT22;26989;45.524;10.938;2023-10-31T15:10:22;16.10;99.90
41256;DHT22;26989;45.524;10.938;2023-10-31T15:12:50;15.90;99.90
41256;DHT22;26989;45.524;10.938;2023-10-31T15:15:17;15.80;99.90
41256;DHT22;26989;45.524;10.938;2023-10-31T15:17:44;15.40;99.90
41256;DHT22;26989;45.524;10.938;2023-10-31T15:20:13;15.30;99.90
41256;DHT22;26989;45.524;10.938;2023-10-31T15:22:41;15.40;99.90
41256;DHT22;26989;45.524;10.938;2023-10-31T15:25:09;15.40;99.90
41256;DHT22;26989;45.524;10.938;2023-10-31T15:27:36;15.40;99.90
41256;DHT22;26989;45.524;10.938;2023-10-31T15:30:07;15.30;99.90